createdAt,value
2023-02-15T00:00:13.291Z,6.39
2023-02-15T00:03:01.075Z,6.38
2023-02-15T00:05:31.407Z,6.32
2023-02-15T00:07:59.546Z,6.27
2023-02-15T00:10:27.560Z,6.26
2023-02-15T00:12:55.111Z,6.26
2023-02-15T00:15:24.077Z,6.24
2023-02-15T00:17:51.700Z,6.15
2023-02-15T00:20:20.099Z,6.07
2023-02-15T00:22:47.577Z,6.03
2023-02-15T00:25:15.600Z,6.04
2023-02-15T00:27:43.101Z,6.02
2023-02-15T00:30:11.670Z,6.02
2023-02-15T00:32:39.214Z,6.01
2023-02-15T00:35:07.985Z,5.96
2023-02-15T00:37:36.372Z,5.92
2023-02-15T00:40:05.860Z,5.88
2023-02-15T00:42:33.414Z,5.93
2023-02-15T00:45:01.831Z,5.94
2023-02-15T00:47:30.264Z,6.01
2023-02-15T00:49:58.072Z,6.09
2023-02-15T00:52:25.608Z,6.16
2023-02-15T00:54:53.373Z,6.23
2023-02-15T00:57:21.026Z,6.26
2023-02-15T00:59:48.859Z,6.30
2023-02-15T01:02:16.485Z,6.33
2023-02-15T01:04:44.594Z,6.32
2023-02-15T01:07:12.113Z,6.33
2023-02-15T01:09:40.008Z,6.32
2023-02-15T01:12:10.131Z,6.31
2023-02-15T01:14:39.099Z,6.31
2023-02-15T01:17:06.741Z,6.29
2023-02-15T01:19:36.874Z,6.28
2023-02-15T01:22:04.641Z,6.29
2023-02-15T01:24:36.564Z,6.27
2023-02-15T01:27:04.222Z,6.24
2023-02-15T01:29:32.189Z,6.21
2023-02-15T01:31:59.920Z,6.20
2023-02-15T01:34:27.770Z,6.17
2023-02-15T01:36:55.326Z,6.20
2023-02-15T01:39:23.447Z,6.21
2023-02-15T01:41:52.659Z,6.23
2023-02-15T01:44:58.860Z,6.21
2023-02-15T01:47:38.473Z,6.17
2023-02-15T01:50:17.301Z,6.18
2023-02-15T01:52:56.871Z,6.20
2023-02-15T01:55:31.451Z,6.22
2023-02-15T01:57:59.779Z,6.21
2023-02-15T02:00:27.846Z,6.14
2023-02-15T02:02:58.113Z,6.08
2023-02-15T02:05:27.262Z,6.08
2023-02-15T02:07:59.611Z,6.02
2023-02-15T02:10:28.154Z,6.04
2023-02-15T02:13:03.991Z,6.03
2023-02-15T02:16:07.569Z,6.05
2023-02-15T02:19:11.491Z,6.01
2023-02-15T02:22:23.654Z,5.97
2023-02-15T02:24:59.320Z,6.01
2023-02-15T02:28:17.161Z,6.01
2023-02-15T02:31:19.558Z,5.96
2023-02-15T02:34:01.814Z,5.96
2023-02-15T02:36:59.294Z,6.01
2023-02-15T02:39:48.310Z,6.06
2023-02-15T02:42:27.217Z,6.11
2023-02-15T02:45:17.737Z,6.14
2023-02-15T02:47:50.104Z,6.14
2023-02-15T02:50:27.849Z,6.12
2023-02-15T02:52:58.287Z,6.05
2023-02-15T02:55:50.232Z,6.02
2023-02-15T02:58:39.238Z,5.93
2023-02-15T03:01:21.147Z,5.89
2023-02-15T03:03:57.094Z,5.83
2023-02-15T03:06:50.066Z,5.87
2023-02-15T03:09:45.773Z,5.91
2023-02-15T03:12:21.551Z,5.87
2023-02-15T03:15:01.059Z,5.85
2023-02-15T03:17:30.705Z,5.76
2023-02-15T03:20:12.086Z,5.70
2023-02-15T03:23:16.621Z,5.68
2023-02-15T03:26:00.720Z,5.63
2023-02-15T03:28:46.775Z,5.60
2023-02-15T03:31:16.299Z,5.60
2023-02-15T03:33:51.594Z,5.59
2023-02-15T03:36:43.643Z,5.51
2023-02-15T03:39:37.468Z,5.48
2023-02-15T03:42:34.516Z,5.50
2023-02-15T03:45:11.002Z,5.50
2023-02-15T03:47:48.331Z,5.49
2023-02-15T03:50:44.615Z,5.55
2023-02-15T03:53:16.468Z,5.49
2023-02-15T03:55:48.997Z,5.42
2023-02-15T03:58:35.146Z,5.39
2023-02-15T04:01:58.988Z,5.39
2023-02-15T04:04:35.771Z,5.37
2023-02-15T04:07:07.806Z,5.32
2023-02-15T04:09:54.100Z,5.29
2023-02-15T04:12:22.267Z,5.30
2023-02-15T04:15:08.459Z,5.32
2023-02-15T04:17:38.858Z,5.29
2023-02-15T04:20:26.124Z,5.28
2023-02-15T04:23:12.237Z,5.27
2023-02-15T04:25:39.833Z,5.16
2023-02-15T04:28:08.813Z,5.20
2023-02-15T04:30:36.541Z,5.17
2023-02-15T04:33:04.451Z,5.16
2023-02-15T04:35:32.870Z,5.09
2023-02-15T04:38:01.111Z,5.09
2023-02-15T04:40:28.706Z,5.08
2023-02-15T04:42:56.602Z,5.08
2023-02-15T04:45:24.125Z,5.01
2023-02-15T04:47:52.044Z,5.00
2023-02-15T04:50:19.955Z,5.00
2023-02-15T04:52:47.929Z,4.99
2023-02-15T04:55:15.649Z,5.00
2023-02-15T04:57:43.525Z,5.02
2023-02-15T05:00:11.836Z,4.98
2023-02-15T05:02:39.819Z,4.93
2023-02-15T05:05:08.309Z,4.91
2023-02-15T05:07:36.211Z,4.94
2023-02-15T05:10:04.023Z,4.97
2023-02-15T05:12:32.210Z,4.97
2023-02-15T05:14:59.725Z,4.92
2023-02-15T05:17:27.535Z,4.97
2023-02-15T05:19:55.080Z,4.96
2023-02-15T05:22:22.961Z,4.97
2023-02-15T05:25:09.148Z,4.92
2023-02-15T05:27:55.856Z,4.84
2023-02-15T05:30:23.490Z,4.78
2023-02-15T05:32:51.424Z,4.67
2023-02-15T05:35:19.491Z,4.65
2023-02-15T05:37:47.480Z,4.64
2023-02-15T05:40:15.069Z,4.69
2023-02-15T05:42:42.965Z,4.71
2023-02-15T05:45:10.966Z,4.79
2023-02-15T05:47:38.745Z,4.77
2023-02-15T05:50:07.350Z,4.76
2023-02-15T05:52:35.925Z,4.76
2023-02-15T05:55:04.587Z,4.71
2023-02-15T05:57:33.054Z,4.67
2023-02-15T06:00:00.703Z,4.61
2023-02-15T06:02:28.555Z,4.66
2023-02-15T06:04:56.173Z,4.74
2023-02-15T06:07:24.016Z,4.80
2023-02-15T06:09:51.580Z,4.88
2023-02-15T06:12:19.868Z,4.91
2023-02-15T06:14:47.390Z,4.94
2023-02-15T06:17:15.598Z,4.90
2023-02-15T06:19:43.893Z,4.89
2023-02-15T06:22:11.961Z,4.91
2023-02-15T06:24:39.498Z,4.91
2023-02-15T06:27:07.422Z,4.92
2023-02-15T06:29:35.249Z,4.91
2023-02-15T06:32:04.506Z,4.90
2023-02-15T06:34:32.123Z,4.94
2023-02-15T06:37:00.242Z,4.98
2023-02-15T06:39:27.683Z,5.05
2023-02-15T06:41:56.477Z,5.12
2023-02-15T06:44:24.254Z,5.14
2023-02-15T06:46:52.191Z,5.23
2023-02-15T06:49:19.710Z,5.32
2023-02-15T06:51:47.492Z,5.31
2023-02-15T06:54:15.042Z,5.31
2023-02-15T06:56:44.599Z,5.31
2023-02-15T06:59:12.426Z,5.32
2023-02-15T07:01:40.642Z,5.34
2023-02-15T07:04:08.363Z,5.42
2023-02-15T07:06:37.017Z,5.44
2023-02-15T07:09:05.325Z,5.55
2023-02-15T07:11:52.039Z,5.78
2023-02-15T07:14:19.742Z,6.04
2023-02-15T07:16:47.576Z,6.14
2023-02-15T07:19:15.145Z,6.21
2023-02-15T07:21:43.231Z,6.23
2023-02-15T07:24:10.748Z,6.27
2023-02-15T07:26:38.708Z,6.29
2023-02-15T07:29:06.458Z,6.30
2023-02-15T07:31:34.276Z,6.34
2023-02-15T07:34:02.216Z,6.36
2023-02-15T07:36:30.090Z,6.41
2023-02-15T07:38:57.711Z,6.48
2023-02-15T07:41:25.687Z,6.51
2023-02-15T07:43:53.284Z,6.55
2023-02-15T07:46:21.986Z,6.58
2023-02-15T07:48:49.921Z,6.56
2023-02-15T07:51:17.868Z,6.57
2023-02-15T07:53:45.604Z,6.63
2023-02-15T07:56:15.699Z,6.63
2023-02-15T07:58:53.159Z,6.66
2023-02-15T08:01:31.012Z,6.69
2023-02-15T08:03:59.465Z,6.73
2023-02-15T08:06:31.254Z,6.82
2023-02-15T08:08:59.158Z,6.83
2023-02-15T08:11:33.938Z,6.85
2023-02-15T08:14:15.003Z,6.87
2023-02-15T08:17:00.508Z,6.92
2023-02-15T08:19:31.008Z,6.90
2023-02-15T08:22:01.218Z,6.93
2023-02-15T08:24:32.359Z,7.02
2023-02-15T08:27:00.520Z,7.05
2023-02-15T08:29:29.978Z,7.11
2023-02-15T08:32:06.204Z,7.11
2023-02-15T08:34:41.579Z,7.21
2023-02-15T08:37:10.444Z,7.32
2023-02-15T08:39:38.134Z,7.25
2023-02-15T08:42:06.118Z,7.19
2023-02-15T08:44:33.577Z,7.21
2023-02-15T08:47:04.832Z,7.24
2023-02-15T08:49:33.304Z,7.23
2023-02-15T08:52:01.703Z,7.27
2023-02-15T08:54:29.292Z,7.40
2023-02-15T08:56:57.284Z,7.42
2023-02-15T08:59:27.849Z,7.39
2023-02-15T09:01:56.584Z,7.45
2023-02-15T09:04:24.480Z,7.55
2023-02-15T09:06:53.281Z,7.55
2023-02-15T09:09:21.408Z,7.62
2023-02-15T09:11:57.856Z,7.74
2023-02-15T09:14:28.104Z,7.83
2023-02-15T09:16:56.733Z,7.93
2023-02-15T09:19:25.218Z,8.02
2023-02-15T09:21:52.935Z,8.14
2023-02-15T09:24:20.993Z,8.09
2023-02-15T09:26:49.741Z,8.02
2023-02-15T09:29:19.383Z,8.02
2023-02-15T09:31:50.009Z,8.10
2023-02-15T09:34:22.005Z,8.15
2023-02-15T09:36:50.819Z,8.20
2023-02-15T09:39:29.043Z,8.31
2023-02-15T09:42:32.680Z,8.45
2023-02-15T09:45:56.902Z,8.39
2023-02-15T09:48:41.285Z,8.40
2023-02-15T09:52:06.639Z,8.41
2023-02-15T09:55:04.009Z,8.29
2023-02-15T09:57:48.283Z,8.39
2023-02-15T10:00:35.564Z,8.50
2023-02-15T10:03:28.046Z,8.66
2023-02-15T10:06:34.828Z,8.84
2023-02-15T10:09:37.913Z,8.93
2023-02-15T10:12:36.949Z,8.92
2023-02-15T10:18:56.685Z,8.96
2023-02-15T10:25:16.711Z,9.01
2023-02-15T10:27:50.659Z,8.87
2023-02-15T10:31:04.362Z,8.84
2023-02-15T10:33:41.575Z,8.86
2023-02-15T10:36:40.264Z,8.84
2023-02-15T10:39:42.666Z,8.84
2023-02-15T10:42:49.212Z,8.76
2023-02-15T10:45:51.019Z,8.61
2023-02-15T10:48:53.343Z,8.71
2023-02-15T10:51:44.963Z,8.79
2023-02-15T10:54:30.630Z,8.95
2023-02-15T10:57:16.612Z,9.06
2023-02-15T11:00:15.104Z,9.03
2023-02-15T11:03:32.246Z,9.12
2023-02-15T11:06:12.808Z,9.18
2023-02-15T11:08:50.994Z,9.25
2023-02-15T11:11:30.615Z,9.36
2023-02-15T11:14:55.149Z,9.56
2023-02-15T11:17:45.236Z,9.65
2023-02-15T11:20:35.468Z,9.49
2023-02-15T11:23:03.715Z,9.45
2023-02-15T11:25:36.570Z,9.52
2023-02-15T11:28:14.554Z,9.62
2023-02-15T11:30:53.166Z,9.79
2023-02-15T11:33:36.207Z,9.91
2023-02-15T11:36:18.845Z,10.05
2023-02-15T11:38:50.364Z,10.25
2023-02-15T11:41:28.417Z,10.50
2023-02-15T11:44:17.631Z,10.71
2023-02-15T11:46:45.698Z,10.90
2023-02-15T11:49:40.220Z,11.09
2023-02-15T11:52:19.588Z,11.31
2023-02-15T11:54:51.544Z,11.48
2023-02-15T11:57:41.481Z,11.70
2023-02-15T12:00:57.158Z,11.77
2023-02-15T12:03:47.574Z,11.80
2023-02-15T12:06:39.762Z,11.92
2023-02-15T12:09:46.739Z,11.98
2023-02-15T12:12:33.421Z,12.16
2023-02-15T12:15:05.489Z,12.29
2023-02-15T12:17:55.969Z,12.44
2023-02-15T12:20:33.117Z,12.56
2023-02-15T12:23:05.504Z,12.66
2023-02-15T12:25:44.751Z,12.83
2023-02-15T12:28:45.431Z,12.85
2023-02-15T12:31:47.646Z,12.81
2023-02-15T12:34:32.187Z,12.99
2023-02-15T12:37:10.417Z,13.20
2023-02-15T12:39:39.446Z,13.41
2023-02-15T12:42:18.462Z,13.57
2023-02-15T12:45:20.392Z,13.69
2023-02-15T12:48:08.544Z,13.56
2023-02-15T12:50:36.360Z,13.55
2023-02-15T12:53:35.594Z,13.47
2023-02-15T12:56:11.370Z,13.49
2023-02-15T12:58:43.130Z,13.79
2023-02-15T13:01:13.762Z,14.09
2023-02-15T13:04:08.290Z,14.31
2023-02-15T13:06:37.931Z,14.48
2023-02-15T13:09:32.267Z,14.73
2023-02-15T13:12:34.719Z,15.02
2023-02-15T13:15:04.227Z,15.18
2023-02-15T13:17:35.264Z,15.32
2023-02-15T13:20:17.610Z,15.49
2023-02-15T13:22:49.061Z,15.65
2023-02-15T13:25:26.287Z,15.70
2023-02-15T13:28:01.582Z,15.66
2023-02-15T13:30:47.451Z,15.92
2023-02-15T13:33:27.378Z,16.07
2023-02-15T13:36:19.032Z,16.20
2023-02-15T13:39:00.421Z,16.33
2023-02-15T13:41:37.646Z,16.48
2023-02-15T13:44:29.967Z,16.62
2023-02-15T13:47:09.793Z,16.86
2023-02-15T13:50:24.937Z,16.94
2023-02-15T13:53:08.374Z,16.86
2023-02-15T13:55:57.000Z,16.82
2023-02-15T13:58:56.896Z,16.77
2023-02-15T14:01:59.585Z,16.96
2023-02-15T14:04:49.217Z,17.19
2023-02-15T14:07:22.542Z,17.25
2023-02-15T14:10:12.054Z,17.38
2023-02-15T14:13:02.886Z,17.37
2023-02-15T14:16:06.932Z,17.43
2023-02-15T14:19:21.770Z,17.52
2023-02-15T14:22:10.335Z,17.52
2023-02-15T14:24:56.273Z,17.60
2023-02-15T14:27:44.458Z,17.81
2023-02-15T14:30:37.601Z,17.71
2023-02-15T14:33:46.736Z,17.70
2023-02-15T14:36:20.528Z,17.81
2023-02-15T14:39:35.049Z,17.93
2023-02-15T14:42:43.932Z,17.89
2023-02-15T14:45:43.907Z,17.86
2023-02-15T14:48:23.206Z,17.97
2023-02-15T14:50:51.132Z,17.97
2023-02-15T14:53:24.204Z,17.98
2023-02-15T14:56:14.747Z,17.96
2023-02-15T14:58:51.212Z,17.99
2023-02-15T15:01:35.162Z,17.88
2023-02-15T15:04:35.634Z,17.64
2023-02-15T15:07:08.674Z,17.35
2023-02-15T15:09:41.658Z,17.16
2023-02-15T15:12:27.109Z,16.89
2023-02-15T15:14:55.897Z,16.64
2023-02-15T15:17:38.795Z,16.16
2023-02-15T15:20:14.722Z,15.59
2023-02-15T15:22:44.695Z,15.02
2023-02-15T15:25:42.132Z,14.46
2023-02-15T15:28:10.171Z,13.95
2023-02-15T15:30:37.592Z,13.55
2023-02-15T15:34:11.819Z,13.10
2023-02-15T15:37:07.548Z,12.62
2023-02-15T15:40:09.140Z,12.18
2023-02-15T15:42:58.501Z,11.82
2023-02-15T15:46:21.946Z,11.50
2023-02-15T15:48:49.984Z,11.23
2023-02-15T15:51:44.968Z,10.97
2023-02-15T15:54:26.139Z,10.75
2023-02-15T15:57:05.015Z,10.55
2023-02-15T15:59:35.373Z,10.40
2023-02-15T16:02:08.837Z,10.24
2023-02-15T16:04:36.775Z,10.16
2023-02-15T16:07:19.755Z,10.11
2023-02-15T16:10:05.733Z,10.06
2023-02-15T16:12:37.267Z,10.02
2023-02-15T16:15:20.547Z,9.93
2023-02-15T16:17:56.049Z,9.80
2023-02-15T16:20:35.420Z,9.59
2023-02-15T16:23:35.818Z,9.41
2023-02-15T16:27:19.728Z,9.23
2023-02-15T16:29:47.557Z,9.08
2023-02-15T16:32:29.293Z,8.94
2023-02-15T16:35:03.670Z,8.86
2023-02-15T16:37:36.512Z,8.77
2023-02-15T16:40:04.980Z,8.71
2023-02-15T16:42:32.470Z,8.66
2023-02-15T16:45:17.556Z,8.57
2023-02-15T16:47:54.186Z,8.50
2023-02-15T16:50:35.592Z,8.42
2023-02-15T16:53:06.472Z,8.36
2023-02-15T16:55:42.120Z,8.29
2023-02-15T16:58:16.857Z,8.25
2023-02-15T17:00:45.235Z,8.20
2023-02-15T17:03:15.501Z,8.17
2023-02-15T17:05:51.171Z,8.13
2023-02-15T17:08:29.553Z,8.10
2023-02-15T17:11:00.755Z,8.05
2023-02-15T17:13:30.022Z,8.01
2023-02-15T17:16:01.088Z,7.97
2023-02-15T17:18:44.889Z,7.93
2023-02-15T17:21:25.318Z,7.90
2023-02-15T17:24:05.134Z,7.88
2023-02-15T17:26:36.992Z,7.82
2023-02-15T17:29:52.964Z,7.82
2023-02-15T17:32:25.784Z,7.77
2023-02-15T17:35:29.203Z,7.74
2023-02-15T17:38:20.356Z,7.71
2023-02-15T17:40:48.427Z,7.68
2023-02-15T17:43:16.194Z,7.64
2023-02-15T17:45:50.447Z,7.63
2023-02-15T17:48:40.636Z,7.63
2023-02-15T17:51:13.769Z,7.62
2023-02-15T17:54:06.827Z,7.58
2023-02-15T17:56:36.137Z,7.58
2023-02-15T17:59:07.803Z,7.55
2023-02-15T18:02:01.135Z,7.48
2023-02-15T18:04:47.846Z,7.45
2023-02-15T18:07:36.046Z,7.44
2023-02-15T18:10:37.098Z,7.41
2023-02-15T18:13:04.851Z,7.36
2023-02-15T18:15:32.993Z,7.33
2023-02-15T18:18:00.719Z,7.30
2023-02-15T18:20:37.030Z,7.26
2023-02-15T18:23:04.750Z,7.27
2023-02-15T18:25:32.651Z,7.21
2023-02-15T18:28:00.221Z,7.19
2023-02-15T18:30:28.313Z,7.18
2023-02-15T18:32:58.492Z,7.17
2023-02-15T18:35:33.520Z,7.19
2023-02-15T18:38:02.199Z,7.21
2023-02-15T18:40:30.778Z,7.21
2023-02-15T18:42:58.374Z,7.25
2023-02-15T18:45:32.911Z,7.28
2023-02-15T18:48:00.729Z,7.28
2023-02-15T18:50:37.774Z,7.34
2023-02-15T18:53:13.641Z,7.39
2023-02-15T18:55:41.625Z,7.40
2023-02-15T18:58:19.837Z,7.41
2023-02-15T19:00:49.966Z,7.41
2023-02-15T19:03:19.003Z,7.44
2023-02-15T19:05:47.727Z,7.47
2023-02-15T19:08:24.740Z,7.51
2023-02-15T19:10:52.883Z,7.51
2023-02-15T19:13:20.440Z,7.54
2023-02-15T19:15:48.265Z,7.57
2023-02-15T19:18:17.023Z,7.60
2023-02-15T19:20:46.886Z,7.61
2023-02-15T19:23:24.846Z,7.61
2023-02-15T19:25:53.880Z,7.65
2023-02-15T19:28:34.287Z,7.67
2023-02-15T19:31:02.202Z,7.69
2023-02-15T19:33:29.902Z,7.68
2023-02-15T19:35:57.943Z,7.68
2023-02-15T19:38:36.623Z,7.68
2023-02-15T19:41:16.896Z,7.67
2023-02-15T19:43:55.666Z,7.68
2023-02-15T19:46:24.355Z,7.68
2023-02-15T19:48:53.545Z,7.67
2023-02-15T19:51:23.282Z,7.66
2023-02-15T19:53:51.782Z,7.64
2023-02-15T19:56:24.512Z,7.62
2023-02-15T19:58:52.295Z,7.62
2023-02-15T20:01:20.241Z,7.63
2023-02-15T20:03:47.943Z,7.65
2023-02-15T20:06:16.835Z,7.63
2023-02-15T20:08:45.546Z,7.63
2023-02-15T20:11:14.461Z,7.62
2023-02-15T20:13:42.192Z,7.60
2023-02-15T20:16:10.175Z,7.59
2023-02-15T20:18:37.794Z,7.57
2023-02-15T20:21:09.407Z,7.58
2023-02-15T20:23:37.629Z,7.57
2023-02-15T20:26:18.539Z,7.56
2023-02-15T20:28:47.343Z,7.54
2023-02-15T20:31:17.578Z,7.54
2023-02-15T20:33:45.852Z,7.52
2023-02-15T20:36:19.247Z,7.51
2023-02-15T20:38:47.221Z,7.52
2023-02-15T20:41:39.142Z,7.49
2023-02-15T20:44:15.685Z,7.46
2023-02-15T20:46:43.785Z,7.45
2023-02-15T20:49:11.769Z,7.45
2023-02-15T20:51:41.705Z,7.42
2023-02-15T20:54:16.318Z,7.40
2023-02-15T20:56:45.990Z,7.38
2023-02-15T20:59:24.350Z,7.36
2023-02-15T21:01:59.075Z,7.36
2023-02-15T21:04:34.383Z,7.35
2023-02-15T21:07:02.570Z,7.34
2023-02-15T21:09:30.305Z,7.33
2023-02-15T21:12:00.103Z,7.31
2023-02-15T21:14:28.419Z,7.31
2023-02-15T21:16:56.213Z,7.26
2023-02-15T21:19:24.810Z,7.26
2023-02-15T21:21:53.778Z,7.28
2023-02-15T21:24:28.531Z,7.30
2023-02-15T21:27:02.989Z,7.32
2023-02-15T21:29:31.614Z,7.32
2023-02-15T21:32:00.518Z,7.33
2023-02-15T21:34:28.123Z,7.33
2023-02-15T21:36:56.212Z,7.34
2023-02-15T21:39:29.929Z,7.37
2023-02-15T21:42:16.923Z,7.36
2023-02-15T21:45:02.755Z,7.36
2023-02-15T21:47:50.645Z,7.35
2023-02-15T21:50:43.182Z,7.36
2023-02-15T21:53:24.548Z,7.34
2023-02-15T21:55:57.378Z,7.35
2023-02-15T21:58:29.154Z,7.39
2023-02-15T22:00:59.322Z,7.39
2023-02-15T22:03:39.787Z,7.39
2023-02-15T22:06:13.625Z,7.37
2023-02-15T22:08:41.664Z,7.35
2023-02-15T22:11:16.261Z,7.38
2023-02-15T22:13:45.587Z,7.35
2023-02-15T22:16:17.742Z,7.35
2023-02-15T22:18:46.430Z,7.35
2023-02-15T22:21:16.651Z,7.36
2023-02-15T22:23:44.653Z,7.36
2023-02-15T22:26:24.139Z,7.39
2023-02-15T22:28:52.297Z,7.39
2023-02-15T22:31:23.150Z,7.39
2023-02-15T22:33:51.835Z,7.40
2023-02-15T22:36:28.804Z,7.38
2023-02-15T22:38:57.837Z,7.39
2023-02-15T22:41:30.234Z,7.37
2023-02-15T22:43:58.888Z,7.37
2023-02-15T22:46:27.133Z,7.36
2023-02-15T22:48:55.252Z,7.39
2023-02-15T22:51:25.053Z,7.38
2023-02-15T22:53:53.887Z,7.38
2023-02-15T22:56:53.198Z,7.39
2023-02-15T22:59:28.929Z,7.36
2023-02-15T23:01:57.679Z,7.35
2023-02-15T23:04:28.659Z,7.34
2023-02-15T23:06:59.507Z,7.33
2023-02-15T23:09:27.428Z,7.33
2023-02-15T23:11:55.059Z,7.32
2023-02-15T23:14:32.734Z,7.30
2023-02-15T23:17:00.443Z,7.30
2023-02-15T23:19:29.224Z,7.28
2023-02-15T23:21:56.991Z,7.26
2023-02-15T23:24:29.882Z,7.24
2023-02-15T23:27:18.072Z,7.23
2023-02-15T23:29:47.655Z,7.23
2023-02-15T23:32:15.657Z,7.22
2023-02-15T23:34:43.913Z,7.17
2023-02-15T23:37:14.723Z,7.15
2023-02-15T23:40:01.620Z,7.15
2023-02-15T23:42:33.282Z,7.12
2023-02-15T23:45:02.595Z,7.13
2023-02-15T23:47:54.076Z,7.24
2023-02-15T23:50:30.421Z,7.40
2023-02-15T23:52:59.667Z,7.44
2023-02-15T23:55:38.787Z,7.43
2023-02-15T23:58:14.480Z,7.34
